sensor_id;sensor_type;location;lat;lon;timestamp;P1;durP1;ratioP1;P2;durP2;ratioP2
28988;SDS011;16089;59.952;10.818;2023-07-29T00:01:14;17.30;;;7.95;;
28988;SDS011;16089;59.952;10.818;2023-07-29T00:03:41;15.82;;;8.05;;
28988;SDS011;16089;59.952;10.818;2023-07-29T00:06:07;15.50;;;8.48;;
28988;SDS011;16089;59.952;10.818;2023-07-29T00:08:33;14.73;;;7.57;;
28988;SDS011;16089;59.952;10.818;2023-07-29T00:11:00;14.25;;;8.00;;
28988;SDS011;16089;59.952;10.818;2023-07-29T00:13:26;16.48;;;8.10;;
28988;SDS011;16089;59.952;10.818;2023-07-29T00:15:53;15.90;;;7.38;;
28988;SDS011;16089;59.952;10.818;2023-07-29T00:18:21;16.02;;;8.65;;
28988;SDS011;16089;59.952;10.818;2023-07-29T00:20:48;18.15;;;8.43;;
28988;SDS011;16089;59.952;10.818;2023-07-29T00:23:15;17.52;;;7.90;;
28988;SDS011;16089;59.952;10.818;2023-07-29T00:25:41;15.20;;;7.45;;
28988;SDS011;16089;59.952;10.818;2023-07-29T00:28:07;15.73;;;8.32;;
28988;SDS011;16089;59.952;10.818;2023-07-29T00:30:34;16.42;;;8.10;;
28988;SDS011;16089;59.952;10.818;2023-07-29T00:33:00;12.00;;;7.10;;
28988;SDS011;16089;59.952;10.818;2023-07-29T00:35:28;14.45;;;7.50;;
28988;SDS011;16089;59.952;10.818;2023-07-29T00:37:54;21.33;;;7.70;;
28988;SDS011;16089;59.952;10.818;2023-07-29T00:40:21;13.00;;;7.22;;
28988;SDS011;16089;59.952;10.818;2023-07-29T00:42:48;14.95;;;8.02;;
28988;SDS011;16089;59.952;10.818;2023-07-29T00:45:14;17.08;;;7.63;;
28988;SDS011;16089;59.952;10.818;2023-07-29T00:47:40;12.68;;;7.60;;
28988;SDS011;16089;59.952;10.818;2023-07-29T00:50:07;12.52;;;7.25;;
28988;SDS011;16089;59.952;10.818;2023-07-29T00:52:36;10.82;;;7.20;;
28988;SDS011;16089;59.952;10.818;2023-07-29T00:55:02;15.05;;;7.10;;
28988;SDS011;16089;59.952;10.818;2023-07-29T00:57:29;16.02;;;9.15;;
28988;SDS011;16089;59.952;10.818;2023-07-29T00:59:55;17.83;;;8.90;;
28988;SDS011;16089;59.952;10.818;2023-07-29T01:02:22;24.95;;;9.80;;
28988;SDS011;16089;59.952;10.818;2023-07-29T01:04:51;21.02;;;9.60;;
28988;SDS011;16089;59.952;10.818;2023-07-29T01:07:19;18.20;;;9.68;;
28988;SDS011;16089;59.952;10.818;2023-07-29T01:09:51;17.13;;;9.48;;
28988;SDS011;16089;59.952;10.818;2023-07-29T01:12:24;18.48;;;9.98;;
28988;SDS011;16089;59.952;10.818;2023-07-29T01:14:55;19.65;;;9.73;;
28988;SDS011;16089;59.952;10.818;2023-07-29T01:17:22;16.38;;;9.38;;
28988;SDS011;16089;59.952;10.818;2023-07-29T01:19:54;21.77;;;9.73;;
28988;SDS011;16089;59.952;10.818;2023-07-29T01:22:21;19.38;;;9.48;;
28988;SDS011;16089;59.952;10.818;2023-07-29T01:24:50;18.98;;;9.95;;
28988;SDS011;16089;59.952;10.818;2023-07-29T01:27:16;23.70;;;11.02;;
28988;SDS011;16089;59.952;10.818;2023-07-29T01:29:42;20.55;;;10.93;;
28988;SDS011;16089;59.952;10.818;2023-07-29T01:32:10;23.15;;;11.50;;
28988;SDS011;16089;59.952;10.818;2023-07-29T01:34:39;22.27;;;10.95;;
28988;SDS011;16089;59.952;10.818;2023-07-29T01:37:06;23.27;;;10.43;;
28988;SDS011;16089;59.952;10.818;2023-07-29T01:39:35;20.98;;;11.35;;
28988;SDS011;16089;59.952;10.818;2023-07-29T01:42:04;19.98;;;11.63;;
28988;SDS011;16089;59.952;10.818;2023-07-29T01:44:31;22.23;;;11.27;;
28988;SDS011;16089;59.952;10.818;2023-07-29T01:46:59;21.70;;;11.90;;
28988;SDS011;16089;59.952;10.818;2023-07-29T01:49:25;24.77;;;11.98;;
28988;SDS011;16089;59.952;10.818;2023-07-29T01:51:52;24.63;;;11.23;;
28988;SDS011;16089;59.952;10.818;2023-07-29T01:54:18;20.80;;;10.85;;
28988;SDS011;16089;59.952;10.818;2023-07-29T01:56:44;22.90;;;11.43;;
28988;SDS011;16089;59.952;10.818;2023-07-29T01:59:12;20.60;;;11.55;;
28988;SDS011;16089;59.952;10.818;2023-07-29T02:01:40;18.95;;;11.18;;
28988;SDS011;16089;59.952;10.818;2023-07-29T02:04:06;20.75;;;10.57;;
28988;SDS011;16089;59.952;10.818;2023-07-29T02:06:32;21.08;;;10.70;;
28988;SDS011;16089;59.952;10.818;2023-07-29T02:08:59;20.25;;;10.82;;
28988;SDS011;16089;59.952;10.818;2023-07-29T02:11:25;19.35;;;9.98;;
28988;SDS011;16089;59.952;10.818;2023-07-29T02:13:53;21.48;;;9.82;;
28988;SDS011;16089;59.952;10.818;2023-07-29T02:16:20;19.90;;;9.27;;
28988;SDS011;16089;59.952;10.818;2023-07-29T02:18:47;17.13;;;9.52;;
28988;SDS011;16089;59.952;10.818;2023-07-29T02:21:14;19.60;;;10.55;;
28988;SDS011;16089;59.952;10.818;2023-07-29T02:23:40;19.25;;;10.32;;
28988;SDS011;16089;59.952;10.818;2023-07-29T02:26:07;19.50;;;11.90;;
28988;SDS011;16089;59.952;10.818;2023-07-29T02:28:33;18.35;;;11.35;;
28988;SDS011;16089;59.952;10.818;2023-07-29T02:31:09;19.70;;;11.80;;
28988;SDS011;16089;59.952;10.818;2023-07-29T02:33:38;19.48;;;11.75;;
28988;SDS011;16089;59.952;10.818;2023-07-29T02:36:04;18.08;;;11.68;;
28988;SDS011;16089;59.952;10.818;2023-07-29T02:38:30;22.48;;;11.93;;
28988;SDS011;16089;59.952;10.818;2023-07-29T02:40:57;21.90;;;12.10;;
28988;SDS011;16089;59.952;10.818;2023-07-29T02:43:23;20.60;;;12.90;;
28988;SDS011;16089;59.952;10.818;2023-07-29T02:45:49;19.20;;;12.07;;
28988;SDS011;16089;59.952;10.818;2023-07-29T02:48:16;18.23;;;10.85;;
28988;SDS011;16089;59.952;10.818;2023-07-29T02:50:43;23.40;;;12.05;;
28988;SDS011;16089;59.952;10.818;2023-07-29T02:53:10;17.13;;;10.13;;
28988;SDS011;16089;59.952;10.818;2023-07-29T02:55:39;19.40;;;10.63;;
28988;SDS011;16089;59.952;10.818;2023-07-29T02:58:05;16.30;;;9.77;;
28988;SDS011;16089;59.952;10.818;2023-07-29T03:00:31;15.18;;;9.85;;
28988;SDS011;16089;59.952;10.818;2023-07-29T03:02:58;18.15;;;9.27;;
28988;SDS011;16089;59.952;10.818;2023-07-29T03:05:25;15.02;;;8.30;;
28988;SDS011;16089;59.952;10.818;2023-07-29T03:07:54;14.55;;;9.35;;
28988;SDS011;16089;59.952;10.818;2023-07-29T03:10:20;15.18;;;9.45;;
28988;SDS011;16089;59.952;10.818;2023-07-29T03:12:47;18.13;;;9.50;;
28988;SDS011;16089;59.952;10.818;2023-07-29T03:15:13;17.00;;;9.65;;
28988;SDS011;16089;59.952;10.818;2023-07-29T03:17:40;19.08;;;9.52;;
28988;SDS011;16089;59.952;10.818;2023-07-29T03:20:06;16.38;;;10.15;;
28988;SDS011;16089;59.952;10.818;2023-07-29T03:22:33;14.27;;;8.68;;
28988;SDS011;16089;59.952;10.818;2023-07-29T03:25:01;14.95;;;8.45;;
28988;SDS011;16089;59.952;10.818;2023-07-29T03:27:27;13.32;;;8.02;;
28988;SDS011;16089;59.952;10.818;2023-07-29T03:29:53;16.13;;;8.95;;
28988;SDS011;16089;59.952;10.818;2023-07-29T03:32:19;18.35;;;9.45;;
28988;SDS011;16089;59.952;10.818;2023-07-29T03:34:46;15.20;;;9.07;;
28988;SDS011;16089;59.952;10.818;2023-07-29T03:37:12;14.48;;;8.95;;
28988;SDS011;16089;59.952;10.818;2023-07-29T03:39:38;16.92;;;8.90;;
28988;SDS011;16089;59.952;10.818;2023-07-29T03:42:06;17.92;;;9.00;;
28988;SDS011;16089;59.952;10.818;2023-07-29T03:44:33;16.50;;;9.20;;
28988;SDS011;16089;59.952;10.818;2023-07-29T03:47:00;21.77;;;9.40;;
28988;SDS011;16089;59.952;10.818;2023-07-29T03:49:26;17.27;;;8.07;;
28988;SDS011;16089;59.952;10.818;2023-07-29T03:51:53;14.68;;;7.93;;
28988;SDS011;16089;59.952;10.818;2023-07-29T03:54:19;12.27;;;7.57;;
28988;SDS011;16089;59.952;10.818;2023-07-29T03:56:45;11.95;;;8.02;;
28988;SDS011;16089;59.952;10.818;2023-07-29T03:59:13;16.60;;;8.30;;
28988;SDS011;16089;59.952;10.818;2023-07-29T04:01:39;15.35;;;8.23;;
28988;SDS011;16089;59.952;10.818;2023-07-29T04:04:06;14.52;;;7.68;;
28988;SDS011;16089;59.952;10.818;2023-07-29T04:06:32;14.57;;;8.30;;
28988;SDS011;16089;59.952;10.818;2023-07-29T04:08:58;15.45;;;8.23;;
28988;SDS011;16089;59.952;10.818;2023-07-29T04:11:25;15.35;;;8.07;;
28988;SDS011;16089;59.952;10.818;2023-07-29T04:13:51;13.10;;;7.90;;
28988;SDS011;16089;59.952;10.818;2023-07-29T04:16:19;14.88;;;8.15;;
28988;SDS011;16089;59.952;10.818;2023-07-29T04:18:45;16.88;;;8.38;;
28988;SDS011;16089;59.952;10.818;2023-07-29T04:21:11;17.35;;;9.70;;
28988;SDS011;16089;59.952;10.818;2023-07-29T04:23:38;19.90;;;10.45;;
28988;SDS011;16089;59.952;10.818;2023-07-29T04:26:05;18.65;;;9.70;;
28988;SDS011;16089;59.952;10.818;2023-07-29T04:28:31;21.15;;;9.75;;
28988;SDS011;16089;59.952;10.818;2023-07-29T04:30:57;17.23;;;8.73;;
28988;SDS011;16089;59.952;10.818;2023-07-29T04:33:26;16.23;;;8.65;;
28988;SDS011;16089;59.952;10.818;2023-07-29T04:35:52;16.50;;;8.10;;
28988;SDS011;16089;59.952;10.818;2023-07-29T04:38:18;16.02;;;7.80;;
28988;SDS011;16089;59.952;10.818;2023-07-29T04:40:45;14.88;;;8.20;;
28988;SDS011;16089;59.952;10.818;2023-07-29T04:43:11;15.13;;;9.00;;
28988;SDS011;16089;59.952;10.818;2023-07-29T04:45:41;16.35;;;8.55;;
28988;SDS011;16089;59.952;10.818;2023-07-29T04:48:08;16.00;;;8.65;;
28988;SDS011;16089;59.952;10.818;2023-07-29T04:50:35;12.38;;;8.23;;
28988;SDS011;16089;59.952;10.818;2023-07-29T04:53:02;15.25;;;8.40;;
28988;SDS011;16089;59.952;10.818;2023-07-29T04:55:29;16.60;;;8.25;;
28988;SDS011;16089;59.952;10.818;2023-07-29T04:57:56;16.30;;;7.90;;
28988;SDS011;16089;59.952;10.818;2023-07-29T05:00:22;11.82;;;8.18;;
28988;SDS011;16089;59.952;10.818;2023-07-29T05:02:48;17.70;;;8.63;;
28988;SDS011;16089;59.952;10.818;2023-07-29T05:05:15;14.93;;;8.20;;
28988;SDS011;16089;59.952;10.818;2023-07-29T05:07:42;14.88;;;7.82;;
28988;SDS011;16089;59.952;10.818;2023-07-29T05:10:09;16.65;;;8.52;;
28988;SDS011;16089;59.952;10.818;2023-07-29T05:12:36;16.42;;;9.48;;
28988;SDS011;16089;59.952;10.818;2023-07-29T05:15:03;17.55;;;9.20;;
28988;SDS011;16089;59.952;10.818;2023-07-29T05:17:29;15.90;;;8.98;;
28988;SDS011;16089;59.952;10.818;2023-07-29T05:19:56;13.65;;;8.20;;
28988;SDS011;16089;59.952;10.818;2023-07-29T05:22:22;17.02;;;8.13;;
28988;SDS011;16089;59.952;10.818;2023-07-29T05:24:50;15.40;;;8.43;;
28988;SDS011;16089;59.952;10.818;2023-07-29T05:27:16;14.82;;;8.35;;
28988;SDS011;16089;59.952;10.818;2023-07-29T05:29:42;12.35;;;7.68;;
28988;SDS011;16089;59.952;10.818;2023-07-29T05:32:09;12.68;;;6.85;;
28988;SDS011;16089;59.952;10.818;2023-07-29T05:34:35;14.23;;;7.90;;
28988;SDS011;16089;59.952;10.818;2023-07-29T05:37:01;13.80;;;7.65;;
28988;SDS011;16089;59.952;10.818;2023-07-29T05:39:28;13.13;;;7.95;;
28988;SDS011;16089;59.952;10.818;2023-07-29T05:41:55;13.25;;;7.63;;
28988;SDS011;16089;59.952;10.818;2023-07-29T05:44:22;13.50;;;7.68;;
28988;SDS011;16089;59.952;10.818;2023-07-29T05:46:48;15.73;;;7.88;;
28988;SDS011;16089;59.952;10.818;2023-07-29T05:49:14;13.27;;;7.70;;
28988;SDS011;16089;59.952;10.818;2023-07-29T05:51:41;15.48;;;7.88;;
28988;SDS011;16089;59.952;10.818;2023-07-29T05:54:07;15.80;;;8.00;;
28988;SDS011;16089;59.952;10.818;2023-07-29T05:56:33;15.80;;;7.95;;
28988;SDS011;16089;59.952;10.818;2023-07-29T05:59:01;16.15;;;8.48;;
28988;SDS011;16089;59.952;10.818;2023-07-29T06:01:27;14.82;;;7.90;;
28988;SDS011;16089;59.952;10.818;2023-07-29T06:03:54;14.60;;;8.10;;
28988;SDS011;16089;59.952;10.818;2023-07-29T06:06:20;12.93;;;8.60;;
28988;SDS011;16089;59.952;10.818;2023-07-29T06:08:48;15.95;;;8.70;;
28988;SDS011;16089;59.952;10.818;2023-07-29T06:11:15;15.88;;;8.63;;
28988;SDS011;16089;59.952;10.818;2023-07-29T06:13:41;14.90;;;8.27;;
28988;SDS011;16089;59.952;10.818;2023-07-29T06:16:08;13.57;;;8.00;;
28988;SDS011;16089;59.952;10.818;2023-07-29T06:18:34;13.13;;;7.97;;
28988;SDS011;16089;59.952;10.818;2023-07-29T06:21:01;15.68;;;8.52;;
28988;SDS011;16089;59.952;10.818;2023-07-29T06:23:27;14.63;;;8.10;;
28988;SDS011;16089;59.952;10.818;2023-07-29T06:25:53;17.17;;;8.57;;
28988;SDS011;16089;59.952;10.818;2023-07-29T06:28:20;11.13;;;6.93;;
28988;SDS011;16089;59.952;10.818;2023-07-29T06:30:46;12.20;;;7.10;;
28988;SDS011;16089;59.952;10.818;2023-07-29T06:33:14;13.30;;;7.53;;
28988;SDS011;16089;59.952;10.818;2023-07-29T06:35:41;13.65;;;7.40;;
28988;SDS011;16089;59.952;10.818;2023-07-29T06:38:07;15.25;;;7.82;;
28988;SDS011;16089;59.952;10.818;2023-07-29T06:40:34;14.43;;;7.78;;
28988;SDS011;16089;59.952;10.818;2023-07-29T06:43:00;16.83;;;8.25;;
28988;SDS011;16089;59.952;10.818;2023-07-29T06:45:26;15.18;;;7.78;;
28988;SDS011;16089;59.952;10.818;2023-07-29T06:47:53;16.20;;;8.00;;
28988;SDS011;16089;59.952;10.818;2023-07-29T06:50:21;15.75;;;7.72;;
28988;SDS011;16089;59.952;10.818;2023-07-29T06:52:47;14.55;;;8.23;;
28988;SDS011;16089;59.952;10.818;2023-07-29T06:55:13;16.23;;;7.55;;
28988;SDS011;16089;59.952;10.818;2023-07-29T06:57:40;15.43;;;6.90;;
28988;SDS011;16089;59.952;10.818;2023-07-29T07:00:06;12.88;;;7.20;;
28988;SDS011;16089;59.952;10.818;2023-07-29T07:02:34;12.60;;;6.85;;
28988;SDS011;16089;59.952;10.818;2023-07-29T07:05:00;11.75;;;6.85;;
28988;SDS011;16089;59.952;10.818;2023-07-29T07:07:28;15.80;;;7.05;;
28988;SDS011;16089;59.952;10.818;2023-07-29T07:09:55;13.48;;;6.38;;
28988;SDS011;16089;59.952;10.818;2023-07-29T07:12:21;13.77;;;6.72;;
28988;SDS011;16089;59.952;10.818;2023-07-29T07:14:48;12.02;;;6.22;;
28988;SDS011;16089;59.952;10.818;2023-07-29T07:17:14;11.80;;;6.63;;
28988;SDS011;16089;59.952;10.818;2023-07-29T07:19:40;14.05;;;6.50;;
28988;SDS011;16089;59.952;10.818;2023-07-29T07:22:07;8.93;;;6.20;;
28988;SDS011;16089;59.952;10.818;2023-07-29T07:24:34;11.35;;;5.63;;
28988;SDS011;16089;59.952;10.818;2023-07-29T07:27:01;11.00;;;5.70;;
28988;SDS011;16089;59.952;10.818;2023-07-29T07:29:28;11.45;;;6.00;;
28988;SDS011;16089;59.952;10.818;2023-07-29T07:31:55;10.23;;;6.03;;
28988;SDS011;16089;59.952;10.818;2023-07-29T07:34:22;8.82;;;5.47;;
28988;SDS011;16089;59.952;10.818;2023-07-29T07:36:48;8.43;;;5.70;;
28988;SDS011;16089;59.952;10.818;2023-07-29T07:39:15;9.93;;;4.95;;
28988;SDS011;16089;59.952;10.818;2023-07-29T07:41:42;8.90;;;5.10;;
28988;SDS011;16089;59.952;10.818;2023-07-29T07:44:09;8.55;;;4.60;;
28988;SDS011;16089;59.952;10.818;2023-07-29T07:46:36;7.95;;;4.63;;
28988;SDS011;16089;59.952;10.818;2023-07-29T07:49:02;9.68;;;4.97;;
28988;SDS011;16089;59.952;10.818;2023-07-29T07:51:28;8.80;;;5.22;;
28988;SDS011;16089;59.952;10.818;2023-07-29T07:53:55;8.23;;;5.10;;
28988;SDS011;16089;59.952;10.818;2023-07-29T07:56:21;9.95;;;4.80;;
28988;SDS011;16089;59.952;10.818;2023-07-29T07:58:49;6.43;;;3.90;;
28988;SDS011;16089;59.952;10.818;2023-07-29T08:01:15;8.32;;;4.07;;
28988;SDS011;16089;59.952;10.818;2023-07-29T08:03:41;8.95;;;4.38;;
28988;SDS011;16089;59.952;10.818;2023-07-29T08:06:08;7.40;;;4.25;;
28988;SDS011;16089;59.952;10.818;2023-07-29T08:08:34;7.38;;;4.15;;
28988;SDS011;16089;59.952;10.818;2023-07-29T08:11:00;8.90;;;4.15;;
28988;SDS011;16089;59.952;10.818;2023-07-29T08:13:27;7.13;;;4.20;;
28988;SDS011;16089;59.952;10.818;2023-07-29T08:15:54;6.90;;;3.80;;
28988;SDS011;16089;59.952;10.818;2023-07-29T08:18:21;5.82;;;3.85;;
28988;SDS011;16089;59.952;10.818;2023-07-29T08:20:53;6.25;;;3.80;;
28988;SDS011;16089;59.952;10.818;2023-07-29T08:23:20;6.22;;;3.90;;
28988;SDS011;16089;59.952;10.818;2023-07-29T08:25:50;6.97;;;4.05;;
28988;SDS011;16089;59.952;10.818;2023-07-29T08:28:16;8.35;;;4.00;;
28988;SDS011;16089;59.952;10.818;2023-07-29T08:30:43;10.93;;;4.10;;
28988;SDS011;16089;59.952;10.818;2023-07-29T08:33:10;7.50;;;3.70;;
28988;SDS011;16089;59.952;10.818;2023-07-29T08:35:37;5.97;;;3.78;;
28988;SDS011;16089;59.952;10.818;2023-07-29T08:38:03;5.68;;;3.65;;
28988;SDS011;16089;59.952;10.818;2023-07-29T08:40:29;6.90;;;4.00;;
28988;SDS011;16089;59.952;10.818;2023-07-29T08:42:57;8.27;;;3.90;;
28988;SDS011;16089;59.952;10.818;2023-07-29T08:45:24;7.38;;;4.30;;
28988;SDS011;16089;59.952;10.818;2023-07-29T08:47:51;5.88;;;4.28;;
28988;SDS011;16089;59.952;10.818;2023-07-29T08:50:21;6.57;;;4.15;;
28988;SDS011;16089;59.952;10.818;2023-07-29T08:52:49;10.40;;;3.90;;
28988;SDS011;16089;59.952;10.818;2023-07-29T08:55:16;8.38;;;3.97;;
28988;SDS011;16089;59.952;10.818;2023-07-29T08:57:42;10.68;;;4.70;;
28988;SDS011;16089;59.952;10.818;2023-07-29T09:00:09;8.82;;;4.20;;
28988;SDS011;16089;59.952;10.818;2023-07-29T09:02:36;8.32;;;4.45;;
28988;SDS011;16089;59.952;10.818;2023-07-29T09:05:02;9.20;;;4.25;;
28988;SDS011;16089;59.952;10.818;2023-07-29T09:07:30;6.68;;;4.18;;
28988;SDS011;16089;59.952;10.818;2023-07-29T09:09:56;6.50;;;3.90;;
28988;SDS011;16089;59.952;10.818;2023-07-29T09:12:23;7.55;;;3.97;;
28988;SDS011;16089;59.952;10.818;2023-07-29T09:14:51;7.32;;;3.80;;
28988;SDS011;16089;59.952;10.818;2023-07-29T09:17:17;5.78;;;4.05;;
28988;SDS011;16089;59.952;10.818;2023-07-29T09:19:47;14.88;;;4.28;;
28988;SDS011;16089;59.952;10.818;2023-07-29T09:22:17;8.45;;;4.05;;
28988;SDS011;16089;59.952;10.818;2023-07-29T09:24:45;7.32;;;3.70;;
28988;SDS011;16089;59.952;10.818;2023-07-29T09:27:15;8.32;;;4.40;;
28988;SDS011;16089;59.952;10.818;2023-07-29T09:29:49;7.30;;;4.13;;
28988;SDS011;16089;59.952;10.818;2023-07-29T09:32:18;9.05;;;4.18;;
28988;SDS011;16089;59.952;10.818;2023-07-29T09:34:45;5.15;;;3.13;;
28988;SDS011;16089;59.952;10.818;2023-07-29T09:37:15;8.40;;;3.70;;
28988;SDS011;16089;59.952;10.818;2023-07-29T09:39:44;6.10;;;3.10;;
28988;SDS011;16089;59.952;10.818;2023-07-29T09:42:11;5.72;;;3.55;;
28988;SDS011;16089;59.952;10.818;2023-07-29T09:44:37;5.90;;;3.25;;
28988;SDS011;16089;59.952;10.818;2023-07-29T09:47:04;8.20;;;3.90;;
28988;SDS011;16089;59.952;10.818;2023-07-29T09:49:33;7.70;;;3.55;;
28988;SDS011;16089;59.952;10.818;2023-07-29T09:52:00;7.78;;;3.55;;
28988;SDS011;16089;59.952;10.818;2023-07-29T09:54:29;6.45;;;3.58;;
28988;SDS011;16089;59.952;10.818;2023-07-29T09:56:57;8.73;;;3.38;;
28988;SDS011;16089;59.952;10.818;2023-07-29T09:59:23;7.20;;;3.40;;
28988;SDS011;16089;59.952;10.818;2023-07-29T10:01:49;8.07;;;3.70;;
28988;SDS011;16089;59.952;10.818;2023-07-29T10:04:16;6.32;;;3.53;;
28988;SDS011;16089;59.952;10.818;2023-07-29T10:06:43;5.97;;;3.08;;
28988;SDS011;16089;59.952;10.818;2023-07-29T10:09:09;7.50;;;3.85;;
28988;SDS011;16089;59.952;10.818;2023-07-29T10:11:37;6.90;;;3.72;;
28988;SDS011;16089;59.952;10.818;2023-07-29T10:14:05;8.63;;;3.90;;
28988;SDS011;16089;59.952;10.818;2023-07-29T10:16:31;6.53;;;3.88;;
28988;SDS011;16089;59.952;10.818;2023-07-29T10:18:58;7.90;;;3.72;;
28988;SDS011;16089;59.952;10.818;2023-07-29T10:21:25;6.45;;;3.90;;
28988;SDS011;16089;59.952;10.818;2023-07-29T10:23:52;7.30;;;3.45;;
28988;SDS011;16089;59.952;10.818;2023-07-29T10:26:19;7.70;;;3.70;;
28988;SDS011;16089;59.952;10.818;2023-07-29T10:28:46;6.93;;;3.60;;
28988;SDS011;16089;59.952;10.818;2023-07-29T10:31:14;7.22;;;3.50;;
28988;SDS011;16089;59.952;10.818;2023-07-29T10:33:41;9.10;;;3.63;;
28988;SDS011;16089;59.952;10.818;2023-07-29T10:36:07;6.43;;;3.63;;
28988;SDS011;16089;59.952;10.818;2023-07-29T10:38:34;8.00;;;3.97;;
28988;SDS011;16089;59.952;10.818;2023-07-29T10:41:01;6.68;;;3.80;;
28988;SDS011;16089;59.952;10.818;2023-07-29T10:43:28;5.97;;;3.55;;
28988;SDS011;16089;59.952;10.818;2023-07-29T10:45:57;8.70;;;4.03;;
28988;SDS011;16089;59.952;10.818;2023-07-29T10:51:27;7.93;;;4.50;;
28988;SDS011;16089;59.952;10.818;2023-07-29T10:53:55;7.30;;;3.55;;
28988;SDS011;16089;59.952;10.818;2023-07-29T10:56:29;8.98;;;4.00;;
28988;SDS011;16089;59.952;10.818;2023-07-29T10:58:56;8.82;;;3.70;;
28988;SDS011;16089;59.952;10.818;2023-07-29T11:01:27;10.55;;;3.95;;
28988;SDS011;16089;59.952;10.818;2023-07-29T11:09:41;12.03;;;4.37;;
28988;SDS011;16089;59.952;10.818;2023-07-29T11:14:48;8.23;;;4.28;;
28988;SDS011;16089;59.952;10.818;2023-07-29T11:17:15;13.23;;;4.55;;
28988;SDS011;16089;59.952;10.818;2023-07-29T11:19:41;15.20;;;7.03;;
28988;SDS011;16089;59.952;10.818;2023-07-29T11:22:09;15.48;;;4.95;;
28988;SDS011;16089;59.952;10.818;2023-07-29T11:24:35;11.70;;;4.57;;
28988;SDS011;16089;59.952;10.818;2023-07-29T11:27:03;10.25;;;4.45;;
28988;SDS011;16089;59.952;10.818;2023-07-29T11:29:29;11.95;;;4.60;;
28988;SDS011;16089;59.952;10.818;2023-07-29T11:31:56;10.60;;;4.50;;
28988;SDS011;16089;59.952;10.818;2023-07-29T11:34:30;13.38;;;4.55;;
28988;SDS011;16089;59.952;10.818;2023-07-29T11:36:56;8.82;;;4.18;;
28988;SDS011;16089;59.952;10.818;2023-07-29T11:39:23;9.50;;;4.50;;
28988;SDS011;16089;59.952;10.818;2023-07-29T11:41:49;12.38;;;4.95;;
28988;SDS011;16089;59.952;10.818;2023-07-29T11:44:17;7.25;;;3.75;;
28988;SDS011;16089;59.952;10.818;2023-07-29T11:46:44;8.70;;;3.80;;
28988;SDS011;16089;59.952;10.818;2023-07-29T11:49:10;10.25;;;3.80;;
28988;SDS011;16089;59.952;10.818;2023-07-29T11:51:37;10.00;;;3.90;;
28988;SDS011;16089;59.952;10.818;2023-07-29T11:54:03;10.32;;;4.03;;
28988;SDS011;16089;59.952;10.818;2023-07-29T11:56:29;9.18;;;4.47;;
28988;SDS011;16089;59.952;10.818;2023-07-29T11:58:56;11.07;;;4.22;;
28988;SDS011;16089;59.952;10.818;2023-07-29T12:01:23;7.32;;;3.45;;
28988;SDS011;16089;59.952;10.818;2023-07-29T12:03:50;6.97;;;3.42;;
28988;SDS011;16089;59.952;10.818;2023-07-29T12:06:16;8.63;;;3.97;;
28988;SDS011;16089;59.952;10.818;2023-07-29T12:08:43;10.07;;;3.80;;
28988;SDS011;16089;59.952;10.818;2023-07-29T12:11:09;9.55;;;4.03;;
28988;SDS011;16089;59.952;10.818;2023-07-29T12:13:36;9.88;;;3.65;;
28988;SDS011;16089;59.952;10.818;2023-07-29T12:16:02;9.20;;;4.43;;
28988;SDS011;16089;59.952;10.818;2023-07-29T12:18:31;10.35;;;4.43;;
28988;SDS011;16089;59.952;10.818;2023-07-29T12:20:58;8.88;;;3.88;;
28988;SDS011;16089;59.952;10.818;2023-07-29T12:23:24;8.00;;;3.95;;
28988;SDS011;16089;59.952;10.818;2023-07-29T12:25:51;9.07;;;5.15;;
28988;SDS011;16089;59.952;10.818;2023-07-29T12:28:17;8.85;;;4.60;;
28988;SDS011;16089;59.952;10.818;2023-07-29T12:30:44;7.72;;;3.67;;
28988;SDS011;16089;59.952;10.818;2023-07-29T12:33:10;8.63;;;4.15;;
28988;SDS011;16089;59.952;10.818;2023-07-29T12:35:38;7.93;;;3.53;;
28988;SDS011;16089;59.952;10.818;2023-07-29T12:38:04;7.85;;;3.35;;
28988;SDS011;16089;59.952;10.818;2023-07-29T12:40:31;6.47;;;2.80;;
28988;SDS011;16089;59.952;10.818;2023-07-29T12:42:57;6.15;;;2.92;;
28988;SDS011;16089;59.952;10.818;2023-07-29T12:45:24;6.20;;;3.10;;
28988;SDS011;16089;59.952;10.818;2023-07-29T12:47:51;7.10;;;2.85;;
28988;SDS011;16089;59.952;10.818;2023-07-29T12:50:18;7.10;;;2.53;;
28988;SDS011;16089;59.952;10.818;2023-07-29T12:52:45;5.60;;;2.63;;
28988;SDS011;16089;59.952;10.818;2023-07-29T12:55:12;6.55;;;2.85;;
28988;SDS011;16089;59.952;10.818;2023-07-29T12:57:39;5.68;;;2.95;;
28988;SDS011;16089;59.952;10.818;2023-07-29T13:00:06;8.63;;;2.90;;
28988;SDS011;16089;59.952;10.818;2023-07-29T13:02:34;7.05;;;3.17;;
28988;SDS011;16089;59.952;10.818;2023-07-29T13:05:00;7.45;;;3.08;;
28988;SDS011;16089;59.952;10.818;2023-07-29T13:07:26;5.40;;;3.00;;
28988;SDS011;16089;59.952;10.818;2023-07-29T13:09:54;7.22;;;3.08;;
28988;SDS011;16089;59.952;10.818;2023-07-29T13:12:20;5.88;;;2.80;;
28988;SDS011;16089;59.952;10.818;2023-07-29T13:14:47;7.57;;;3.35;;
28988;SDS011;16089;59.952;10.818;2023-07-29T13:17:13;5.70;;;2.97;;
28988;SDS011;16089;59.952;10.818;2023-07-29T13:19:40;5.13;;;2.67;;
28988;SDS011;16089;59.952;10.818;2023-07-29T13:22:06;7.65;;;2.90;;
28988;SDS011;16089;59.952;10.818;2023-07-29T13:24:32;7.22;;;2.92;;
28988;SDS011;16089;59.952;10.818;2023-07-29T13:27:00;10.40;;;2.65;;
28988;SDS011;16089;59.952;10.818;2023-07-29T13:29:26;5.38;;;2.88;;
28988;SDS011;16089;59.952;10.818;2023-07-29T13:31:53;9.88;;;2.97;;
28988;SDS011;16089;59.952;10.818;2023-07-29T13:34:19;6.43;;;2.83;;
28988;SDS011;16089;59.952;10.818;2023-07-29T13:36:45;7.97;;;3.08;;
28988;SDS011;16089;59.952;10.818;2023-07-29T13:39:12;6.07;;;2.92;;
28988;SDS011;16089;59.952;10.818;2023-07-29T13:41:38;4.97;;;2.75;;
28988;SDS011;16089;59.952;10.818;2023-07-29T13:44:06;6.43;;;2.90;;
28988;SDS011;16089;59.952;10.818;2023-07-29T13:46:32;6.53;;;2.95;;
28988;SDS011;16089;59.952;10.818;2023-07-29T13:48:59;8.23;;;2.90;;
28988;SDS011;16089;59.952;10.818;2023-07-29T13:51:25;6.18;;;2.80;;
28988;SDS011;16089;59.952;10.818;2023-07-29T13:53:51;6.20;;;2.60;;
28988;SDS011;16089;59.952;10.818;2023-07-29T13:56:18;4.78;;;2.70;;
28988;SDS011;16089;59.952;10.818;2023-07-29T13:58:44;8.00;;;3.15;;
28988;SDS011;16089;59.952;10.818;2023-07-29T14:01:12;8.55;;;3.00;;
28988;SDS011;16089;59.952;10.818;2023-07-29T14:03:38;8.30;;;2.92;;
28988;SDS011;16089;59.952;10.818;2023-07-29T14:06:04;8.18;;;3.17;;
28988;SDS011;16089;59.952;10.818;2023-07-29T14:08:31;8.27;;;3.10;;
28988;SDS011;16089;59.952;10.818;2023-07-29T14:10:57;6.80;;;3.08;;
28988;SDS011;16089;59.952;10.818;2023-07-29T14:13:23;6.40;;;2.72;;
28988;SDS011;16089;59.952;10.818;2023-07-29T14:15:50;9.13;;;3.40;;
28988;SDS011;16089;59.952;10.818;2023-07-29T14:18:17;5.93;;;2.90;;
28988;SDS011;16089;59.952;10.818;2023-07-29T14:20:44;6.35;;;2.63;;
28988;SDS011;16089;59.952;10.818;2023-07-29T14:23:10;7.13;;;2.58;;
28988;SDS011;16089;59.952;10.818;2023-07-29T14:25:36;5.13;;;2.60;;
28988;SDS011;16089;59.952;10.818;2023-07-29T14:28:03;6.72;;;2.90;;
28988;SDS011;16089;59.952;10.818;2023-07-29T14:30:29;4.45;;;2.60;;
28988;SDS011;16089;59.952;10.818;2023-07-29T14:32:56;6.75;;;2.63;;
28988;SDS011;16089;59.952;10.818;2023-07-29T14:35:23;7.93;;;2.30;;